createdAt,value
2019-04-28T00:01:44.604Z,2.00
2019-04-28T00:04:14.052Z,2.17
2019-04-28T00:06:43.582Z,1.77
2019-04-28T00:09:14.702Z,2.10
2019-04-28T00:11:44.201Z,2.40
2019-04-28T00:14:13.678Z,2.10
2019-04-28T00:16:43.149Z,2.10
2019-04-28T00:19:12.708Z,2.23
2019-04-28T00:21:43.885Z,2.60
2019-04-28T00:24:15.032Z,2.00
2019-04-28T00:26:46.200Z,2.47
2019-04-28T00:29:15.769Z,2.07
2019-04-28T00:31:45.217Z,2.23
2019-04-28T00:34:14.692Z,2.30
2019-04-28T00:36:45.880Z,2.23
2019-04-28T00:39:15.397Z,1.73
2019-04-28T00:41:44.865Z,1.93
2019-04-28T00:44:14.321Z,1.70
2019-04-28T00:46:44.495Z,1.50
2019-04-28T00:49:13.961Z,1.60
2019-04-28T00:51:43.439Z,1.60
2019-04-28T00:54:13.005Z,1.77
2019-04-28T00:56:42.463Z,1.60
2019-04-28T00:59:12.200Z,1.60
2019-04-28T01:01:43.322Z,1.50
2019-04-28T01:04:12.776Z,1.60
2019-04-28T01:06:43.037Z,1.37
2019-04-28T01:09:12.726Z,1.40
2019-04-28T01:11:42.225Z,1.63
2019-04-28T01:14:11.751Z,1.57
2019-04-28T01:16:40.986Z,1.47
2019-04-28T01:19:12.082Z,1.53
2019-04-28T01:21:43.190Z,1.70
2019-04-28T01:24:12.692Z,1.67
2019-04-28T01:26:42.229Z,2.00
2019-04-28T01:29:11.685Z,2.10
2019-04-28T01:31:42.800Z,2.00
2019-04-28T01:34:13.948Z,2.00
2019-04-28T01:36:43.408Z,2.30
2019-04-28T01:39:13.042Z,2.30
2019-04-28T01:41:42.494Z,2.13
2019-04-28T01:44:12.084Z,1.90
2019-04-28T01:46:41.546Z,2.07
2019-04-28T01:49:11.104Z,2.17
2019-04-28T01:51:42.277Z,2.33
2019-04-28T01:54:11.885Z,2.47
2019-04-28T01:56:41.397Z,1.90
2019-04-28T01:59:10.915Z,1.90
2019-04-28T02:01:40.694Z,1.93
2019-04-28T02:04:10.307Z,1.70
2019-04-28T02:06:39.984Z,2.23
2019-04-28T02:09:10.122Z,1.77
2019-04-28T02:11:41.243Z,2.33
2019-04-28T02:14:11.216Z,2.40
2019-04-28T02:16:40.850Z,2.10
2019-04-28T02:19:10.745Z,2.07
2019-04-28T02:21:42.008Z,2.07
2019-04-28T02:24:13.124Z,2.03
2019-04-28T02:26:42.608Z,2.10
2019-04-28T02:29:12.061Z,2.10
2019-04-28T02:31:42.000Z,2.10
2019-04-28T02:34:11.729Z,2.10
2019-04-28T02:36:41.269Z,2.40
2019-04-28T02:39:10.763Z,2.20
2019-04-28T02:41:41.118Z,2.23
2019-04-28T02:44:10.658Z,2.23
2019-04-28T02:46:40.864Z,2.43
2019-04-28T02:49:12.143Z,2.13
2019-04-28T02:51:43.260Z,2.10
2019-04-28T02:54:12.732Z,2.17
2019-04-28T02:56:43.755Z,2.13
2019-04-28T02:59:13.334Z,1.90
2019-04-28T03:01:43.053Z,2.70
2019-04-28T03:04:12.527Z,2.10
2019-04-28T03:06:42.008Z,2.23
2019-04-28T03:09:11.627Z,2.57
2019-04-28T03:11:43.104Z,1.90
2019-04-28T03:14:12.262Z,2.23
2019-04-28T03:16:41.731Z,1.83
2019-04-28T03:19:11.237Z,1.90
2019-04-28T03:21:41.668Z,2.30
2019-04-28T03:24:13.325Z,2.40
2019-04-28T03:26:42.596Z,2.53
2019-04-28T03:29:13.973Z,2.30
2019-04-28T03:32:10.236Z,4.17
2019-04-28T03:34:16.260Z,2.13
2019-04-28T03:36:45.775Z,2.47
2019-04-28T03:39:15.351Z,2.90
2019-04-28T03:41:44.828Z,3.07
2019-04-28T03:44:14.395Z,2.43
2019-04-28T03:46:45.539Z,2.40
2019-04-28T03:49:16.849Z,2.33
2019-04-28T03:51:46.319Z,2.43
2019-04-28T03:54:15.768Z,3.00
2019-04-28T03:56:45.436Z,3.77
2019-04-28T03:59:14.884Z,2.87
2019-04-28T04:01:55.338Z,5.80
2019-04-28T04:04:15.523Z,3.03
2019-04-28T04:06:45.023Z,3.93
2019-04-28T04:09:14.531Z,4.50
2019-04-28T04:11:45.749Z,5.03
2019-04-28T04:14:16.873Z,3.20
2019-04-28T04:16:50.191Z,2.50
2019-04-28T04:19:20.330Z,2.07
2019-04-28T04:21:52.490Z,3.13
2019-04-28T04:24:21.136Z,3.73
2019-04-28T04:26:50.693Z,2.40
2019-04-28T04:29:21.710Z,2.30
2019-04-28T04:31:51.418Z,2.50
2019-04-28T04:34:20.948Z,2.20
2019-04-28T04:36:50.974Z,2.00
2019-04-28T04:39:20.849Z,2.67
2019-04-28T04:41:50.568Z,2.27
2019-04-28T04:44:21.152Z,2.20
2019-04-28T04:46:51.047Z,2.30
2019-04-28T04:49:21.546Z,3.87
2019-04-28T04:51:51.193Z,2.40
2019-04-28T04:54:20.686Z,2.43
2019-04-28T04:56:50.255Z,2.20
2019-04-28T04:59:20.320Z,2.70
2019-04-28T05:01:51.486Z,2.27
2019-04-28T05:04:22.668Z,2.60
2019-04-28T05:06:52.138Z,3.30
2019-04-28T05:09:21.628Z,3.00
2019-04-28T05:11:51.117Z,2.83
2019-04-28T05:14:20.568Z,2.40
2019-04-28T05:16:50.136Z,2.10
2019-04-28T05:19:20.011Z,3.80
2019-04-28T05:21:49.965Z,4.40
2019-04-28T05:24:20.000Z,3.97
2019-04-28T05:26:51.599Z,4.07
2019-04-28T05:29:26.618Z,3.40
2019-04-28T05:31:54.852Z,4.20
2019-04-28T05:34:24.208Z,5.33
2019-04-28T05:36:54.029Z,4.67
2019-04-28T05:39:23.503Z,4.33
2019-04-28T05:41:53.139Z,3.00
2019-04-28T05:44:22.691Z,2.40
2019-04-28T05:46:52.181Z,2.10
2019-04-28T05:49:23.326Z,2.60
2019-04-28T05:51:54.463Z,2.20
2019-04-28T05:54:25.651Z,2.70
2019-04-28T05:56:56.803Z,1.90
2019-04-28T05:59:29.963Z,2.57
2019-04-28T06:02:00.797Z,2.20
2019-04-28T06:04:30.606Z,2.87
2019-04-28T06:07:01.850Z,2.20
2019-04-28T06:09:33.005Z,2.03
2019-04-28T06:12:03.448Z,2.40
2019-04-28T06:14:32.932Z,2.40
2019-04-28T06:17:04.061Z,2.30
2019-04-28T06:19:33.790Z,2.43
2019-04-28T06:22:03.279Z,2.57
2019-04-28T06:24:32.760Z,1.83
2019-04-28T06:27:02.224Z,2.63
2019-04-28T06:29:31.796Z,1.90
2019-04-28T06:32:01.252Z,2.10
2019-04-28T06:34:30.699Z,2.37
2019-04-28T06:37:00.179Z,2.47
2019-04-28T06:39:29.667Z,2.53
2019-04-28T06:41:59.217Z,1.90
2019-04-28T06:44:28.692Z,2.50
2019-04-28T06:46:58.249Z,2.00
2019-04-28T06:49:27.815Z,2.40
2019-04-28T06:51:57.363Z,2.87
2019-04-28T06:54:26.837Z,2.50
2019-04-28T06:56:56.311Z,2.37
2019-04-28T06:59:25.792Z,2.63
2019-04-28T07:01:55.279Z,3.03
2019-04-28T07:04:24.731Z,2.90
2019-04-28T07:06:54.201Z,2.70
2019-04-28T07:09:23.772Z,2.23
2019-04-28T07:11:53.313Z,2.77
2019-04-28T07:14:22.769Z,2.70
2019-04-28T07:16:52.297Z,2.30
2019-04-28T07:19:21.763Z,2.30
2019-04-28T07:21:52.870Z,2.10
2019-04-28T07:24:22.648Z,2.37
2019-04-28T07:26:52.130Z,2.20
2019-04-28T07:29:21.596Z,3.40
2019-04-28T07:31:51.068Z,2.43
2019-04-28T07:34:20.632Z,2.30
2019-04-28T07:36:50.095Z,2.53
2019-04-28T07:39:19.554Z,3.07
2019-04-28T07:41:49.042Z,2.10
2019-04-28T07:44:18.521Z,2.20
2019-04-28T07:46:47.992Z,2.50
2019-04-28T07:49:17.541Z,2.40
2019-04-28T07:51:48.640Z,2.60
2019-04-28T07:54:19.789Z,2.80
2019-04-28T07:56:49.246Z,3.40
2019-04-28T07:59:18.765Z,2.40
2019-04-28T08:01:48.258Z,5.00
2019-04-28T08:04:17.713Z,3.53
2019-04-28T08:06:47.229Z,2.57
2019-04-28T08:09:18.267Z,3.73
2019-04-28T08:11:47.717Z,3.27
2019-04-28T08:14:19.678Z,2.83
2019-04-28T08:16:48.435Z,15.87
2019-04-28T08:19:17.991Z,11.60
2019-04-28T08:21:47.460Z,9.53
2019-04-28T08:24:16.926Z,6.07
2019-04-28T08:26:46.416Z,2.70
2019-04-28T08:29:15.882Z,2.30
2019-04-28T08:31:46.977Z,3.63
2019-04-28T08:34:18.068Z,2.37
2019-04-28T08:36:47.527Z,2.73
2019-04-28T08:39:17.034Z,3.10
2019-04-28T08:41:46.564Z,3.00
2019-04-28T08:44:16.032Z,2.20
2019-04-28T08:46:45.510Z,2.23
2019-04-28T08:49:15.045Z,2.50
2019-04-28T08:51:44.522Z,2.10
2019-04-28T08:54:14.128Z,4.07
2019-04-28T08:56:43.640Z,2.30
2019-04-28T08:59:13.136Z,4.77
2019-04-28T09:01:42.649Z,2.20
2019-04-28T09:04:15.638Z,6.93
2019-04-28T09:06:43.259Z,2.60
2019-04-28T09:09:14.381Z,2.00
2019-04-28T09:11:43.887Z,2.23
2019-04-28T09:14:13.383Z,2.10
2019-04-28T09:16:42.969Z,2.63
2019-04-28T09:19:12.433Z,8.47
2019-04-28T09:21:41.973Z,5.00
2019-04-28T09:24:11.470Z,3.27
2019-04-28T09:26:40.953Z,2.77
2019-04-28T09:29:10.543Z,2.70
2019-04-28T09:31:40.012Z,2.10
2019-04-28T09:34:09.515Z,3.50
2019-04-28T09:36:39.017Z,3.17
2019-04-28T09:39:10.410Z,2.43
2019-04-28T09:41:41.505Z,4.67
2019-04-28T09:44:12.608Z,2.00
2019-04-28T09:46:43.719Z,1.70
2019-04-28T09:49:13.218Z,1.80
2019-04-28T09:51:42.768Z,1.57
2019-04-28T09:54:12.258Z,2.00
2019-04-28T09:56:41.815Z,4.87
2019-04-28T09:59:11.336Z,1.77
2019-04-28T10:01:40.804Z,3.40
2019-04-28T10:04:10.364Z,4.37
2019-04-28T10:06:39.985Z,2.43
2019-04-28T10:09:10.080Z,2.60
2019-04-28T10:11:39.598Z,2.03
2019-04-28T10:14:09.049Z,2.27
2019-04-28T10:16:38.534Z,1.80
2019-04-28T10:19:08.027Z,2.20
2019-04-28T10:21:37.497Z,1.60
2019-04-28T10:24:06.943Z,1.70
2019-04-28T10:26:36.443Z,2.17
2019-04-28T10:29:06.000Z,2.03
2019-04-28T10:31:35.503Z,2.23
2019-04-28T10:34:05.592Z,1.90
2019-04-28T10:36:35.709Z,2.43
2019-04-28T10:39:09.565Z,2.07
2019-04-28T10:41:39.733Z,1.90
2019-04-28T10:44:09.291Z,2.00
2019-04-28T10:46:38.946Z,2.10
2019-04-28T10:49:08.476Z,2.00
2019-04-28T10:51:38.003Z,2.20
2019-04-28T10:54:07.540Z,2.20
2019-04-28T10:56:37.108Z,1.90
2019-04-28T10:59:06.594Z,1.90
2019-04-28T11:01:36.160Z,1.90
2019-04-28T11:04:07.262Z,2.40
2019-04-28T11:06:36.838Z,1.80
2019-04-28T11:09:08.408Z,3.30
2019-04-28T11:11:37.976Z,2.57
2019-04-28T11:14:07.540Z,1.90
2019-04-28T11:16:38.396Z,1.97
2019-04-28T11:19:08.611Z,2.00
2019-04-28T11:21:38.080Z,1.70
2019-04-28T11:24:07.631Z,1.77
2019-04-28T11:26:37.127Z,2.07
2019-04-28T11:29:06.827Z,1.80
2019-04-28T11:31:36.372Z,2.00
2019-04-28T11:34:07.606Z,1.80
2019-04-28T11:36:37.723Z,1.97
2019-04-28T11:39:09.027Z,1.80
2019-04-28T11:41:38.613Z,1.73
2019-04-28T11:44:08.095Z,1.80
2019-04-28T11:46:37.631Z,2.37
2019-04-28T11:49:07.070Z,2.33
2019-04-28T11:51:36.637Z,2.17
2019-04-28T11:54:06.116Z,2.23
2019-04-28T11:56:41.739Z,1.90
2019-04-28T11:59:07.059Z,1.80
2019-04-28T12:01:36.610Z,1.70
2019-04-28T12:04:07.748Z,2.00
2019-04-28T12:06:37.258Z,1.87
2019-04-28T12:09:08.720Z,1.50
2019-04-28T12:11:39.810Z,1.30
2019-04-28T12:14:10.935Z,1.80
2019-04-28T12:16:42.122Z,1.53
2019-04-28T12:19:13.365Z,1.77
2019-04-28T12:21:42.836Z,2.60
2019-04-28T12:24:12.292Z,2.53
2019-04-28T12:26:41.858Z,2.10
2019-04-28T12:29:11.358Z,2.10
2019-04-28T12:31:41.782Z,1.80
2019-04-28T12:34:11.247Z,2.07
2019-04-28T12:36:40.989Z,2.13
2019-04-28T12:39:10.460Z,2.20
2019-04-28T12:41:39.939Z,2.17
2019-04-28T12:44:09.531Z,2.20
2019-04-28T12:46:38.941Z,2.77
2019-04-28T12:49:10.061Z,2.80
2019-04-28T12:51:39.520Z,2.60
2019-04-28T12:54:10.645Z,2.40
2019-04-28T12:56:40.162Z,2.30
2019-04-28T12:59:11.261Z,2.70
2019-04-28T13:01:42.387Z,2.30
2019-04-28T13:04:13.518Z,2.10
2019-04-28T13:06:44.608Z,2.30
2019-04-28T13:09:14.111Z,2.20
2019-04-28T13:11:43.732Z,2.50
2019-04-28T13:14:13.289Z,2.50
2019-04-28T13:16:42.738Z,2.10
2019-04-28T13:19:12.283Z,2.10
2019-04-28T13:21:41.799Z,2.37
2019-04-28T13:24:11.280Z,2.37
2019-04-28T13:26:40.755Z,2.43
2019-04-28T13:29:10.239Z,2.40
2019-04-28T13:31:39.791Z,2.77
2019-04-28T13:34:10.891Z,2.73
2019-04-28T13:36:40.368Z,2.60
2019-04-28T13:39:11.743Z,2.47
2019-04-28T13:41:41.193Z,3.20
2019-04-28T13:44:12.316Z,2.70
2019-04-28T13:46:41.841Z,4.20
2019-04-28T13:49:12.954Z,3.10
2019-04-28T13:51:42.419Z,2.63
2019-04-28T13:54:13.558Z,2.30
2019-04-28T13:56:43.003Z,2.90
2019-04-28T13:59:14.211Z,2.63
2019-04-28T14:01:45.301Z,2.67
2019-04-28T14:04:16.436Z,2.77
2019-04-28T14:06:47.535Z,3.60
2019-04-28T14:09:17.115Z,4.27
2019-04-28T14:11:46.666Z,2.33
2019-04-28T14:14:16.186Z,2.20
2019-04-28T14:16:45.665Z,2.37
2019-04-28T14:19:15.125Z,2.50
2019-04-28T14:21:44.873Z,2.53
2019-04-28T14:24:14.357Z,2.10
2019-04-28T14:26:43.835Z,2.30
2019-04-28T14:29:13.308Z,2.50
2019-04-28T14:31:42.835Z,2.53
2019-04-28T14:34:12.336Z,2.40
2019-04-28T14:36:42.663Z,1.93
2019-04-28T14:39:12.344Z,2.20
2019-04-28T14:41:41.868Z,2.90
2019-04-28T14:44:11.354Z,2.50
2019-04-28T14:46:40.853Z,2.53
2019-04-28T14:49:10.368Z,2.47
2019-04-28T14:51:39.878Z,2.87
2019-04-28T14:54:10.995Z,3.10
2019-04-28T14:56:40.602Z,2.53
2019-04-28T14:59:09.993Z,2.20
2019-04-28T15:01:41.121Z,2.13
2019-04-28T15:04:12.315Z,2.07
2019-04-28T15:06:55.174Z,2.40
2019-04-28T15:09:16.235Z,2.20
2019-04-28T15:11:47.334Z,2.03
2019-04-28T15:14:16.829Z,2.07
2019-04-28T15:16:46.296Z,1.80
2019-04-28T15:19:15.759Z,1.90
2019-04-28T15:21:45.254Z,2.00
2019-04-28T15:24:14.692Z,1.60
2019-04-28T15:26:44.161Z,1.70
2019-04-28T15:29:13.677Z,1.80
2019-04-28T15:31:43.146Z,1.50
2019-04-28T15:34:12.692Z,1.80
2019-04-28T15:36:42.244Z,1.50
2019-04-28T15:39:12.202Z,2.17
2019-04-28T15:41:41.653Z,1.50
2019-04-28T15:44:11.146Z,2.00
2019-04-28T15:46:40.687Z,1.87
2019-04-28T15:49:10.142Z,1.73
2019-04-28T15:51:39.684Z,2.10
2019-04-28T15:54:09.160Z,1.93
2019-04-28T15:56:40.279Z,2.03
2019-04-28T15:59:09.850Z,2.30
2019-04-28T16:01:39.332Z,2.00
2019-04-28T16:04:08.866Z,2.03
2019-04-28T16:06:38.406Z,2.30
2019-04-28T16:09:09.891Z,2.30
2019-04-28T16:11:39.753Z,2.20
2019-04-28T16:14:09.246Z,2.17
2019-04-28T16:16:38.727Z,2.03
2019-04-28T16:19:08.426Z,1.87
2019-04-28T16:21:37.971Z,1.97
2019-04-28T16:24:07.484Z,2.17
2019-04-28T16:26:37.037Z,1.80
2019-04-28T16:29:06.496Z,2.03
2019-04-28T16:31:35.961Z,2.10
2019-04-28T16:34:05.469Z,2.10
2019-04-28T16:36:35.156Z,2.17
2019-04-28T16:39:06.955Z,2.00
2019-04-28T16:41:36.601Z,2.10
2019-04-28T16:44:06.231Z,1.90
2019-04-28T16:46:35.783Z,1.87
2019-04-28T16:49:05.567Z,1.97
2019-04-28T16:51:35.015Z,2.00
2019-04-28T16:54:04.555Z,1.97
2019-04-28T16:56:35.813Z,1.63
2019-04-28T16:59:06.951Z,2.00
2019-04-28T17:01:38.045Z,2.07
2019-04-28T17:04:07.598Z,2.33
2019-04-28T17:06:37.054Z,2.30
2019-04-28T17:09:07.691Z,2.30
2019-04-28T17:11:37.210Z,2.30
2019-04-28T17:14:06.692Z,2.17
2019-04-28T17:16:36.161Z,2.43
2019-04-28T17:19:05.648Z,2.00
2019-04-28T17:21:35.142Z,2.47
2019-04-28T17:24:04.692Z,2.00
2019-04-28T17:26:34.143Z,1.90
2019-04-28T17:29:03.984Z,2.23
2019-04-28T17:31:33.703Z,2.00
2019-04-28T17:34:03.507Z,2.10
2019-04-28T17:36:32.958Z,2.10
2019-04-28T17:39:02.511Z,2.50
2019-04-28T17:41:32.035Z,2.13
2019-04-28T17:44:01.669Z,2.30
2019-04-28T17:46:31.155Z,2.20
2019-04-28T17:49:01.021Z,1.90
2019-04-28T17:51:30.556Z,2.23
2019-04-28T17:54:00.073Z,2.53
2019-04-28T17:56:29.565Z,2.60
2019-04-28T17:58:59.055Z,2.40
2019-04-28T18:01:30.452Z,2.60
2019-04-28T18:04:01.621Z,2.50
2019-04-28T18:06:32.705Z,2.60
2019-04-28T18:09:02.212Z,2.67
2019-04-28T18:11:31.718Z,2.90
2019-04-28T18:14:04.021Z,2.50
2019-04-28T18:16:33.986Z,2.77
2019-04-28T18:19:05.083Z,2.80
2019-04-28T18:21:34.591Z,3.30
2019-04-28T18:24:04.119Z,3.60
2019-04-28T18:26:33.616Z,2.60
2019-04-28T18:29:03.372Z,3.37
2019-04-28T18:31:34.536Z,2.80
2019-04-28T18:34:05.626Z,2.97
2019-04-28T18:36:36.720Z,2.70
2019-04-28T18:39:08.968Z,3.25
2019-04-28T18:41:40.059Z,3.77
2019-04-28T18:44:11.190Z,3.92
2019-04-28T18:46:40.660Z,3.03
2019-04-28T18:49:10.155Z,3.37
2019-04-28T18:51:39.694Z,4.03
2019-04-28T18:54:09.170Z,5.03
2019-04-28T18:56:38.667Z,6.17
2019-04-28T18:59:08.186Z,4.10
2019-04-28T19:01:37.513Z,3.50
2019-04-28T19:04:07.033Z,3.67
2019-04-28T19:06:36.583Z,3.73
2019-04-28T19:09:08.542Z,3.40
2019-04-28T19:11:39.719Z,4.17
2019-04-28T19:14:10.917Z,4.63
2019-04-28T19:16:41.999Z,4.47
2019-04-28T19:19:13.116Z,3.87
2019-04-28T19:21:44.216Z,3.60
2019-04-28T19:24:13.747Z,3.77
2019-04-28T19:26:43.243Z,3.17
2019-04-28T19:29:12.728Z,3.17
2019-04-28T19:31:42.178Z,3.57
2019-04-28T19:34:11.641Z,3.37
2019-04-28T19:36:41.131Z,3.67
2019-04-28T19:39:10.616Z,4.43
2019-04-28T19:41:40.122Z,4.23
2019-04-28T19:44:09.586Z,5.40
2019-04-28T19:46:39.068Z,4.67
2019-04-28T19:49:08.517Z,5.97
2019-04-28T19:51:38.155Z,5.20
2019-04-28T19:54:08.290Z,4.80
2019-04-28T19:56:39.382Z,5.07
2019-04-28T19:59:10.535Z,4.63
2019-04-28T20:01:40.098Z,4.37
2019-04-28T20:04:09.647Z,4.63
2019-04-28T20:06:39.118Z,4.73
2019-04-28T20:09:08.585Z,4.23
2019-04-28T20:11:38.106Z,4.37
2019-04-28T20:14:07.651Z,4.50
2019-04-28T20:16:37.098Z,3.43
2019-04-28T20:19:06.673Z,3.63
2019-04-28T20:21:36.368Z,3.73
2019-04-28T20:24:05.898Z,4.23
2019-04-28T20:26:35.402Z,3.83
2019-04-28T20:29:05.020Z,4.77
2019-04-28T20:31:34.445Z,4.30
2019-04-28T20:34:03.936Z,4.23
2019-04-28T20:36:35.134Z,4.50
2019-04-28T20:39:07.882Z,4.80
2019-04-28T20:41:37.347Z,4.53
2019-04-28T20:44:06.848Z,4.53
2019-04-28T20:46:36.299Z,4.27
2019-04-28T20:49:05.773Z,4.20
2019-04-28T20:51:35.256Z,4.00
2019-04-28T20:54:04.880Z,3.40
2019-04-28T20:56:34.358Z,3.50
2019-04-28T20:59:03.808Z,3.40
2019-04-28T21:01:33.274Z,3.73
2019-04-28T21:04:02.799Z,3.60
2019-04-28T21:06:32.306Z,4.00
2019-04-28T21:09:01.902Z,4.33
2019-04-28T21:11:31.401Z,4.73
2019-04-28T21:14:00.863Z,4.33
2019-04-28T21:16:30.362Z,4.53
2019-04-28T21:18:59.859Z,4.50
2019-04-28T21:21:29.323Z,3.67
2019-04-28T21:23:58.789Z,4.10
2019-04-28T21:26:28.265Z,4.70
2019-04-28T21:28:57.757Z,5.10
2019-04-28T21:31:27.279Z,4.20
2019-04-28T21:33:56.844Z,4.43
2019-04-28T21:36:26.305Z,4.43
2019-04-28T21:38:55.843Z,3.67
2019-04-28T21:41:25.326Z,3.57
2019-04-28T21:43:56.469Z,3.77
2019-04-28T21:46:27.608Z,3.80
2019-04-28T21:48:58.724Z,3.67
2019-04-28T21:51:28.177Z,4.10
2019-04-28T21:53:57.736Z,4.37
2019-04-28T21:56:27.311Z,4.10
2019-04-28T21:58:56.796Z,4.13
2019-04-28T22:01:26.690Z,4.53
2019-04-28T22:03:56.146Z,4.27
2019-04-28T22:06:26.259Z,4.20
2019-04-28T22:08:55.782Z,4.27
2019-04-28T22:11:25.292Z,4.53
2019-04-28T22:13:54.798Z,4.33
2019-04-28T22:16:24.314Z,4.03
2019-04-28T22:18:53.828Z,4.30
2019-04-28T22:21:23.371Z,4.50
2019-04-28T22:23:54.549Z,4.70
2019-04-28T22:26:25.775Z,4.67
2019-04-28T22:28:55.274Z,4.73
2019-04-28T22:31:24.768Z,4.60
2019-04-28T22:33:54.385Z,4.40
2019-04-28T22:36:23.865Z,4.60
2019-04-28T22:38:53.459Z,4.57
2019-04-28T22:41:23.031Z,4.07
2019-04-28T22:43:52.487Z,4.30
2019-04-28T22:46:21.950Z,3.90
2019-04-28T22:48:53.399Z,3.83
2019-04-28T22:51:22.891Z,4.07
2019-04-28T22:53:52.429Z,3.67
2019-04-28T22:56:21.734Z,3.47
2019-04-28T22:58:52.893Z,3.30
2019-04-28T23:01:24.259Z,3.70
2019-04-28T23:03:55.442Z,4.23
2019-04-28T23:06:24.888Z,4.00
2019-04-28T23:08:54.399Z,4.10
2019-04-28T23:11:23.912Z,3.87
2019-04-28T23:13:53.398Z,3.60
2019-04-28T23:16:22.980Z,3.80
2019-04-28T23:18:52.941Z,3.80
2019-04-28T23:21:24.167Z,3.60
2019-04-28T23:23:53.646Z,3.50
2019-04-28T23:26:23.226Z,3.23
2019-04-28T23:28:52.634Z,2.80
2019-04-28T23:31:22.193Z,3.40
2019-04-28T23:33:51.670Z,3.50
2019-04-28T23:36:21.143Z,2.90
2019-04-28T23:38:50.623Z,3.17
2019-04-28T23:41:21.722Z,2.80
2019-04-28T23:43:51.305Z,3.07
2019-04-28T23:46:22.404Z,3.03
2019-04-28T23:48:51.876Z,3.20
2019-04-28T23:51:23.101Z,3.20
2019-04-28T23:53:54.197Z,3.10
2019-04-28T23:56:23.667Z,3.30
2019-04-28T23:58:53.223Z,3.40
